sensor_id;sensor_type;location;lat;lon;timestamp;pressure;altitude;pressure_sealevel;temperature;humidity
61898;BME280;47850;50.274;18.908;2023-08-07T00:02:11;96893.34;;;12.92;100.00
61898;BME280;47850;50.274;18.908;2023-08-07T00:04:39;96894.52;;;12.92;100.00
61898;BME280;47850;50.274;18.908;2023-08-07T00:07:07;96894.61;;;12.93;100.00
61898;BME280;47850;50.274;18.908;2023-08-07T00:09:34;96895.64;;;12.94;100.00
61898;BME280;47850;50.274;18.908;2023-08-07T00:12:02;96890.72;;;12.95;100.00
61898;BME280;47850;50.274;18.908;2023-08-07T00:14:31;96891.34;;;12.94;100.00
61898;BME280;47850;50.274;18.908;2023-08-07T00:16:58;96887.19;;;12.94;100.00
61898;BME280;47850;50.274;18.908;2023-08-07T00:19:26;96887.20;;;12.94;100.00
61898;BME280;47850;50.274;18.908;2023-08-07T00:21:54;96885.54;;;12.92;100.00
61898;BME280;47850;50.274;18.908;2023-08-07T00:24:22;96885.66;;;12.91;100.00
61898;BME280;47850;50.274;18.908;2023-08-07T00:26:49;96885.02;;;12.90;100.00
61898;BME280;47850;50.274;18.908;2023-08-07T00:29:17;96886.66;;;12.89;100.00
61898;BME280;47850;50.274;18.908;2023-08-07T00:31:45;96888.14;;;12.89;100.00
61898;BME280;47850;50.274;18.908;2023-08-07T00:34:13;96889.56;;;12.91;100.00
61898;BME280;47850;50.274;18.908;2023-08-07T00:36:40;96891.16;;;12.92;100.00
61898;BME280;47850;50.274;18.908;2023-08-07T00:39:08;96887.91;;;12.95;100.00
61898;BME280;47850;50.274;18.908;2023-08-07T00:41:36;96886.54;;;12.98;100.00
61898;BME280;47850;50.274;18.908;2023-08-07T00:44:04;96882.29;;;12.99;100.00
61898;BME280;47850;50.274;18.908;2023-08-07T00:46:32;96883.39;;;13.00;100.00
61898;BME280;47850;50.274;18.908;2023-08-07T00:48:59;96887.38;;;13.00;100.00
61898;BME280;47850;50.274;18.908;2023-08-07T00:51:27;96884.24;;;13.00;100.00
61898;BME280;47850;50.274;18.908;2023-08-07T00:53:55;96883.22;;;12.99;100.00
61898;BME280;47850;50.274;18.908;2023-08-07T00:56:23;96877.66;;;12.99;100.00
61898;BME280;47850;50.274;18.908;2023-08-07T00:58:51;96875.70;;;12.99;100.00
61898;BME280;47850;50.274;18.908;2023-08-07T01:01:19;96875.10;;;13.00;100.00
61898;BME280;47850;50.274;18.908;2023-08-07T01:03:47;96874.63;;;13.01;100.00
61898;BME280;47850;50.274;18.908;2023-08-07T01:06:15;96871.46;;;13.03;100.00
61898;BME280;47850;50.274;18.908;2023-08-07T01:08:43;96873.45;;;13.04;100.00
61898;BME280;47850;50.274;18.908;2023-08-07T01:11:43;96874.73;;;13.07;100.00
61898;BME280;47850;50.274;18.908;2023-08-07T01:14:25;96873.32;;;13.07;100.00
61898;BME280;47850;50.274;18.908;2023-08-07T01:17:05;96877.61;;;13.06;100.00
61898;BME280;47850;50.274;18.908;2023-08-07T01:19:34;96876.34;;;13.04;100.00
61898;BME280;47850;50.274;18.908;2023-08-07T01:22:09;96869.13;;;13.03;100.00
61898;BME280;47850;50.274;18.908;2023-08-07T01:24:38;96870.02;;;13.01;100.00
61898;BME280;47850;50.274;18.908;2023-08-07T01:35:08;96884.17;;;12.95;100.00
61898;BME280;47850;50.274;18.908;2023-08-07T01:37:41;96882.13;;;12.94;100.00
61898;BME280;47850;50.274;18.908;2023-08-07T01:40:10;96880.70;;;12.92;100.00
61898;BME280;47850;50.274;18.908;2023-08-07T01:42:38;96879.44;;;12.92;100.00
61898;BME280;47850;50.274;18.908;2023-08-07T01:45:07;96878.96;;;12.92;100.00
61898;BME280;47850;50.274;18.908;2023-08-07T01:47:34;96878.88;;;12.91;100.00
61898;BME280;47850;50.274;18.908;2023-08-07T01:50:03;96880.12;;;12.91;100.00
61898;BME280;47850;50.274;18.908;2023-08-07T01:52:31;96884.90;;;12.92;100.00
61898;BME280;47850;50.274;18.908;2023-08-07T01:54:58;96882.27;;;12.93;100.00
61898;BME280;47850;50.274;18.908;2023-08-07T01:57:26;96883.52;;;12.93;100.00
61898;BME280;47850;50.274;18.908;2023-08-07T01:59:54;96875.84;;;12.92;100.00
61898;BME280;47850;50.274;18.908;2023-08-07T02:02:22;96873.85;;;12.90;100.00
61898;BME280;47850;50.274;18.908;2023-08-07T02:04:49;96875.20;;;12.87;100.00
61898;BME280;47850;50.274;18.908;2023-08-07T02:07:17;96875.27;;;12.86;100.00
61898;BME280;47850;50.274;18.908;2023-08-07T02:09:45;96873.58;;;12.83;100.00
61898;BME280;47850;50.274;18.908;2023-08-07T02:12:13;96870.02;;;12.81;100.00
61898;BME280;47850;50.274;18.908;2023-08-07T02:14:40;96869.93;;;12.81;100.00
61898;BME280;47850;50.274;18.908;2023-08-07T02:17:08;96874.70;;;12.79;100.00
61898;BME280;47850;50.274;18.908;2023-08-07T02:19:36;96873.81;;;12.78;100.00
61898;BME280;47850;50.274;18.908;2023-08-07T02:22:05;96874.44;;;12.78;100.00
61898;BME280;47850;50.274;18.908;2023-08-07T02:24:33;96873.50;;;12.78;100.00
61898;BME280;47850;50.274;18.908;2023-08-07T02:27:00;96875.36;;;12.77;100.00
61898;BME280;47850;50.274;18.908;2023-08-07T02:29:28;96876.13;;;12.77;100.00
61898;BME280;47850;50.274;18.908;2023-08-07T02:31:57;96875.19;;;12.76;100.00
61898;BME280;47850;50.274;18.908;2023-08-07T02:34:25;96876.17;;;12.75;100.00
61898;BME280;47850;50.274;18.908;2023-08-07T02:36:53;96876.21;;;12.73;100.00
61898;BME280;47850;50.274;18.908;2023-08-07T02:39:20;96877.47;;;12.72;100.00
61898;BME280;47850;50.274;18.908;2023-08-07T02:41:48;96874.03;;;12.72;100.00
61898;BME280;47850;50.274;18.908;2023-08-07T02:44:16;96884.32;;;12.71;100.00
61898;BME280;47850;50.274;18.908;2023-08-07T02:46:47;96887.59;;;12.71;100.00
61898;BME280;47850;50.274;18.908;2023-08-07T02:49:15;96887.11;;;12.70;100.00
61898;BME280;47850;50.274;18.908;2023-08-07T02:51:43;96891.74;;;12.71;100.00
61898;BME280;47850;50.274;18.908;2023-08-07T02:54:10;96891.90;;;12.71;100.00
61898;BME280;47850;50.274;18.908;2023-08-07T02:56:38;96893.67;;;12.70;100.00
61898;BME280;47850;50.274;18.908;2023-08-07T02:59:06;96893.73;;;12.69;100.00
61898;BME280;47850;50.274;18.908;2023-08-07T03:01:34;96896.31;;;12.68;100.00
61898;BME280;47850;50.274;18.908;2023-08-07T03:04:02;96891.98;;;12.68;100.00
61898;BME280;47850;50.274;18.908;2023-08-07T03:06:29;96895.73;;;12.66;100.00
61898;BME280;47850;50.274;18.908;2023-08-07T03:08:57;96895.09;;;12.66;100.00
61898;BME280;47850;50.274;18.908;2023-08-07T03:11:25;96894.02;;;12.66;100.00
61898;BME280;47850;50.274;18.908;2023-08-07T03:13:53;96895.33;;;12.67;100.00
61898;BME280;47850;50.274;18.908;2023-08-07T03:16:21;96898.85;;;12.67;100.00
61898;BME280;47850;50.274;18.908;2023-08-07T03:18:48;96900.34;;;12.67;100.00
61898;BME280;47850;50.274;18.908;2023-08-07T03:21:16;96902.86;;;12.68;100.00
61898;BME280;47850;50.274;18.908;2023-08-07T03:23:44;96902.20;;;12.70;100.00
61898;BME280;47850;50.274;18.908;2023-08-07T03:26:12;96900.65;;;12.71;100.00
61898;BME280;47850;50.274;18.908;2023-08-07T03:28:40;96899.17;;;12.71;100.00
61898;BME280;47850;50.274;18.908;2023-08-07T03:31:08;96897.77;;;12.71;100.00
61898;BME280;47850;50.274;18.908;2023-08-07T03:33:35;96899.42;;;12.72;100.00
61898;BME280;47850;50.274;18.908;2023-08-07T03:36:04;96899.11;;;12.73;100.00
61898;BME280;47850;50.274;18.908;2023-08-07T03:38:31;96899.23;;;12.74;100.00
61898;BME280;47850;50.274;18.908;2023-08-07T03:40:59;96902.48;;;12.78;100.00
61898;BME280;47850;50.274;18.908;2023-08-07T03:43:27;96903.14;;;12.80;100.00
61898;BME280;47850;50.274;18.908;2023-08-07T03:45:55;96903.55;;;12.80;100.00
61898;BME280;47850;50.274;18.908;2023-08-07T03:48:26;96907.24;;;12.82;100.00
61898;BME280;47850;50.274;18.908;2023-08-07T03:51:04;96909.05;;;12.82;100.00
61898;BME280;47850;50.274;18.908;2023-08-07T03:53:32;96911.41;;;12.83;100.00
61898;BME280;47850;50.274;18.908;2023-08-07T03:56:00;96915.33;;;12.84;100.00
61898;BME280;47850;50.274;18.908;2023-08-07T03:58:28;96914.11;;;12.85;100.00
61898;BME280;47850;50.274;18.908;2023-08-07T04:00:56;96915.13;;;12.85;100.00
61898;BME280;47850;50.274;18.908;2023-08-07T04:03:24;96920.54;;;12.86;100.00
61898;BME280;47850;50.274;18.908;2023-08-07T04:05:52;96920.23;;;12.87;100.00
61898;BME280;47850;50.274;18.908;2023-08-07T04:08:22;96926.65;;;12.88;100.00
61898;BME280;47850;50.274;18.908;2023-08-07T04:11:05;96925.83;;;12.89;100.00
61898;BME280;47850;50.274;18.908;2023-08-07T04:13:33;96923.80;;;12.89;100.00
61898;BME280;47850;50.274;18.908;2023-08-07T04:16:00;96929.27;;;12.89;100.00
61898;BME280;47850;50.274;18.908;2023-08-07T04:18:32;96925.73;;;12.89;100.00
61898;BME280;47850;50.274;18.908;2023-08-07T04:21:00;96932.77;;;12.89;100.00
61898;BME280;47850;50.274;18.908;2023-08-07T04:23:28;96935.29;;;12.89;100.00
61898;BME280;47850;50.274;18.908;2023-08-07T04:25:55;96935.27;;;12.89;100.00
61898;BME280;47850;50.274;18.908;2023-08-07T04:28:23;96934.91;;;12.90;100.00
61898;BME280;47850;50.274;18.908;2023-08-07T04:30:52;96939.27;;;12.90;100.00
61898;BME280;47850;50.274;18.908;2023-08-07T04:33:20;96937.63;;;12.89;100.00
61898;BME280;47850;50.274;18.908;2023-08-07T04:35:48;96939.11;;;12.89;100.00
61898;BME280;47850;50.274;18.908;2023-08-07T04:38:16;96936.88;;;12.91;100.00
61898;BME280;47850;50.274;18.908;2023-08-07T04:40:48;96939.05;;;12.90;100.00
61898;BME280;47850;50.274;18.908;2023-08-07T04:43:18;96937.55;;;12.90;100.00
61898;BME280;47850;50.274;18.908;2023-08-07T04:45:47;96936.55;;;12.91;100.00
61898;BME280;47850;50.274;18.908;2023-08-07T04:48:16;96933.90;;;12.90;100.00
61898;BME280;47850;50.274;18.908;2023-08-07T04:50:45;96935.94;;;12.91;100.00
61898;BME280;47850;50.274;18.908;2023-08-07T04:53:13;96935.08;;;12.91;100.00
61898;BME280;47850;50.274;18.908;2023-08-07T04:55:40;96934.05;;;12.91;100.00
61898;BME280;47850;50.274;18.908;2023-08-07T04:58:08;96939.14;;;12.91;100.00
61898;BME280;47850;50.274;18.908;2023-08-07T05:00:36;96941.20;;;12.88;100.00
61898;BME280;47850;50.274;18.908;2023-08-07T05:03:04;96940.55;;;12.87;100.00
61898;BME280;47850;50.274;18.908;2023-08-07T05:05:32;96943.27;;;12.86;100.00
61898;BME280;47850;50.274;18.908;2023-08-07T05:07:59;96948.13;;;12.87;100.00
61898;BME280;47850;50.274;18.908;2023-08-07T05:10:27;96952.31;;;12.85;100.00
61898;BME280;47850;50.274;18.908;2023-08-07T05:12:55;96957.11;;;12.82;100.00
61898;BME280;47850;50.274;18.908;2023-08-07T05:15:24;96958.70;;;12.80;100.00
61898;BME280;47850;50.274;18.908;2023-08-07T05:17:53;96960.04;;;12.79;100.00
61898;BME280;47850;50.274;18.908;2023-08-07T05:20:20;96959.40;;;12.79;100.00
61898;BME280;47850;50.274;18.908;2023-08-07T05:22:48;96959.66;;;12.80;100.00
61898;BME280;47850;50.274;18.908;2023-08-07T05:25:16;96957.08;;;12.81;100.00
61898;BME280;47850;50.274;18.908;2023-08-07T05:27:45;96959.23;;;12.82;100.00
61898;BME280;47850;50.274;18.908;2023-08-07T05:30:14;96959.25;;;12.84;100.00
61898;BME280;47850;50.274;18.908;2023-08-07T05:32:42;96960.42;;;12.84;100.00
61898;BME280;47850;50.274;18.908;2023-08-07T05:35:10;96963.35;;;12.85;100.00
61898;BME280;47850;50.274;18.908;2023-08-07T05:37:38;96962.63;;;12.84;100.00
61898;BME280;47850;50.274;18.908;2023-08-07T05:40:06;96964.84;;;12.86;100.00
61898;BME280;47850;50.274;18.908;2023-08-07T05:42:34;96969.08;;;12.86;100.00
61898;BME280;47850;50.274;18.908;2023-08-07T05:45:03;96968.23;;;12.87;100.00
61898;BME280;47850;50.274;18.908;2023-08-07T05:47:32;96969.67;;;12.90;100.00
61898;BME280;47850;50.274;18.908;2023-08-07T05:50:00;96971.97;;;12.91;100.00
61898;BME280;47850;50.274;18.908;2023-08-07T05:52:28;96972.42;;;12.90;100.00
61898;BME280;47850;50.274;18.908;2023-08-07T05:54:56;96969.92;;;12.90;100.00
61898;BME280;47850;50.274;18.908;2023-08-07T05:57:24;96973.87;;;12.92;100.00
61898;BME280;47850;50.274;18.908;2023-08-07T05:59:52;96971.88;;;12.95;100.00
61898;BME280;47850;50.274;18.908;2023-08-07T06:02:19;96978.43;;;12.99;100.00
61898;BME280;47850;50.274;18.908;2023-08-07T06:04:47;96979.48;;;13.00;100.00
61898;BME280;47850;50.274;18.908;2023-08-07T06:07:16;96979.84;;;13.03;100.00
61898;BME280;47850;50.274;18.908;2023-08-07T06:09:43;96983.55;;;13.06;100.00
61898;BME280;47850;50.274;18.908;2023-08-07T06:12:11;96985.20;;;13.11;100.00
61898;BME280;47850;50.274;18.908;2023-08-07T06:14:39;96982.70;;;13.16;100.00
61898;BME280;47850;50.274;18.908;2023-08-07T06:17:07;96982.58;;;13.22;100.00
61898;BME280;47850;50.274;18.908;2023-08-07T06:19:35;96985.80;;;13.28;100.00
61898;BME280;47850;50.274;18.908;2023-08-07T06:22:03;96990.45;;;13.35;100.00
61898;BME280;47850;50.274;18.908;2023-08-07T06:24:31;96991.41;;;13.39;100.00
61898;BME280;47850;50.274;18.908;2023-08-07T06:27:02;96990.77;;;13.43;100.00
61898;BME280;47850;50.274;18.908;2023-08-07T06:29:30;96989.77;;;13.44;100.00
61898;BME280;47850;50.274;18.908;2023-08-07T06:31:58;96995.52;;;13.46;100.00
61898;BME280;47850;50.274;18.908;2023-08-07T06:34:26;96995.20;;;13.46;100.00
61898;BME280;47850;50.274;18.908;2023-08-07T06:36:54;96995.66;;;13.46;100.00
61898;BME280;47850;50.274;18.908;2023-08-07T06:39:22;96998.29;;;13.44;100.00
61898;BME280;47850;50.274;18.908;2023-08-07T06:41:49;96995.01;;;13.44;100.00
61898;BME280;47850;50.274;18.908;2023-08-07T06:44:17;96998.31;;;13.45;100.00
61898;BME280;47850;50.274;18.908;2023-08-07T06:46:45;96997.77;;;13.40;100.00
61898;BME280;47850;50.274;18.908;2023-08-07T06:49:13;97001.73;;;13.39;100.00
61898;BME280;47850;50.274;18.908;2023-08-07T06:51:41;96996.20;;;13.40;100.00
61898;BME280;47850;50.274;18.908;2023-08-07T06:54:09;97000.05;;;13.46;100.00
61898;BME280;47850;50.274;18.908;2023-08-07T06:56:36;97002.67;;;13.50;100.00
61898;BME280;47850;50.274;18.908;2023-08-07T06:59:08;97001.64;;;13.58;100.00
61898;BME280;47850;50.274;18.908;2023-08-07T07:01:36;97004.29;;;13.62;100.00
61898;BME280;47850;50.274;18.908;2023-08-07T07:04:04;97004.29;;;13.62;100.00
61898;BME280;47850;50.274;18.908;2023-08-07T07:06:31;97009.10;;;13.60;100.00
61898;BME280;47850;50.274;18.908;2023-08-07T07:08:59;97007.45;;;13.59;100.00
61898;BME280;47850;50.274;18.908;2023-08-07T07:11:27;97011.98;;;13.60;100.00
61898;BME280;47850;50.274;18.908;2023-08-07T07:13:55;97015.14;;;13.61;100.00
61898;BME280;47850;50.274;18.908;2023-08-07T07:16:22;97017.26;;;13.61;100.00
61898;BME280;47850;50.274;18.908;2023-08-07T07:18:51;97018.75;;;13.61;100.00
61898;BME280;47850;50.274;18.908;2023-08-07T07:21:18;97022.77;;;13.59;100.00
61898;BME280;47850;50.274;18.908;2023-08-07T07:23:47;97026.08;;;13.55;100.00
61898;BME280;47850;50.274;18.908;2023-08-07T07:26:15;97023.08;;;13.53;100.00
61898;BME280;47850;50.274;18.908;2023-08-07T07:28:43;97029.23;;;13.56;100.00
61898;BME280;47850;50.274;18.908;2023-08-07T07:31:11;97030.48;;;13.55;100.00
61898;BME280;47850;50.274;18.908;2023-08-07T07:33:39;97031.96;;;13.51;100.00
61898;BME280;47850;50.274;18.908;2023-08-07T07:36:18;97035.84;;;13.53;100.00
61898;BME280;47850;50.274;18.908;2023-08-07T07:38:47;97040.75;;;13.62;100.00
61898;BME280;47850;50.274;18.908;2023-08-07T07:41:15;97043.17;;;13.67;100.00
61898;BME280;47850;50.274;18.908;2023-08-07T07:43:43;97046.59;;;13.76;100.00
61898;BME280;47850;50.274;18.908;2023-08-07T07:46:11;97048.54;;;13.80;100.00
61898;BME280;47850;50.274;18.908;2023-08-07T07:48:39;97051.23;;;13.82;100.00
61898;BME280;47850;50.274;18.908;2023-08-07T07:51:06;97051.32;;;13.89;100.00
61898;BME280;47850;50.274;18.908;2023-08-07T07:53:34;97054.73;;;13.96;100.00
61898;BME280;47850;50.274;18.908;2023-08-07T07:56:02;97053.02;;;14.02;100.00
61898;BME280;47850;50.274;18.908;2023-08-07T07:58:30;97054.02;;;14.12;100.00
61898;BME280;47850;50.274;18.908;2023-08-07T08:00:58;97053.33;;;14.19;100.00
61898;BME280;47850;50.274;18.908;2023-08-07T08:03:25;97059.79;;;14.27;100.00
61898;BME280;47850;50.274;18.908;2023-08-07T08:05:53;97061.20;;;14.34;100.00
61898;BME280;47850;50.274;18.908;2023-08-07T08:08:21;97068.45;;;14.42;100.00
61898;BME280;47850;50.274;18.908;2023-08-07T08:10:49;97061.02;;;14.42;100.00
61898;BME280;47850;50.274;18.908;2023-08-07T08:13:18;97068.16;;;14.37;100.00
61898;BME280;47850;50.274;18.908;2023-08-07T08:15:46;97069.90;;;14.34;100.00
61898;BME280;47850;50.274;18.908;2023-08-07T08:18:14;97072.58;;;14.34;100.00
61898;BME280;47850;50.274;18.908;2023-08-07T08:20:42;97076.95;;;14.34;100.00
61898;BME280;47850;50.274;18.908;2023-08-07T08:23:09;97076.12;;;14.36;100.00
61898;BME280;47850;50.274;18.908;2023-08-07T08:25:37;97076.30;;;14.38;100.00
61898;BME280;47850;50.274;18.908;2023-08-07T08:28:05;97079.39;;;14.41;100.00
61898;BME280;47850;50.274;18.908;2023-08-07T08:30:33;97076.18;;;14.47;100.00
61898;BME280;47850;50.274;18.908;2023-08-07T08:33:00;97079.81;;;14.49;100.00
61898;BME280;47850;50.274;18.908;2023-08-07T08:35:28;97084.47;;;14.51;100.00
61898;BME280;47850;50.274;18.908;2023-08-07T08:37:56;97087.56;;;14.54;100.00
61898;BME280;47850;50.274;18.908;2023-08-07T08:40:24;97088.84;;;14.55;100.00
61898;BME280;47850;50.274;18.908;2023-08-07T08:42:53;97090.49;;;14.49;100.00
61898;BME280;47850;50.274;18.908;2023-08-07T08:45:26;97089.34;;;14.46;100.00
61898;BME280;47850;50.274;18.908;2023-08-07T08:47:59;97095.27;;;14.50;100.00
61898;BME280;47850;50.274;18.908;2023-08-07T08:50:28;97096.90;;;14.55;100.00
61898;BME280;47850;50.274;18.908;2023-08-07T08:52:56;97098.46;;;14.54;100.00
61898;BME280;47850;50.274;18.908;2023-08-07T08:55:25;97101.66;;;14.53;100.00
61898;BME280;47850;50.274;18.908;2023-08-07T08:57:54;97103.29;;;14.52;100.00
61898;BME280;47850;50.274;18.908;2023-08-07T09:00:23;97105.42;;;14.59;100.00
61898;BME280;47850;50.274;18.908;2023-08-07T09:02:53;97102.70;;;14.61;100.00
61898;BME280;47850;50.274;18.908;2023-08-07T09:05:21;97098.56;;;14.62;100.00
61898;BME280;47850;50.274;18.908;2023-08-07T09:07:50;97105.02;;;14.68;100.00
61898;BME280;47850;50.274;18.908;2023-08-07T09:10:18;97103.27;;;14.66;100.00
61898;BME280;47850;50.274;18.908;2023-08-07T09:15:29;97106.38;;;14.76;100.00
61898;BME280;47850;50.274;18.908;2023-08-07T09:17:58;97110.14;;;14.89;100.00
61898;BME280;47850;50.274;18.908;2023-08-07T09:20:27;97113.09;;;15.00;100.00
61898;BME280;47850;50.274;18.908;2023-08-07T09:22:56;97112.51;;;15.04;100.00
61898;BME280;47850;50.274;18.908;2023-08-07T09:25:28;97115.98;;;15.00;100.00
61898;BME280;47850;50.274;18.908;2023-08-07T09:27:56;97120.52;;;15.05;100.00
61898;BME280;47850;50.274;18.908;2023-08-07T09:30:28;97124.02;;;15.09;100.00
61898;BME280;47850;50.274;18.908;2023-08-07T09:32:57;97128.23;;;15.08;100.00
61898;BME280;47850;50.274;18.908;2023-08-07T09:35:26;97129.77;;;14.98;100.00
61898;BME280;47850;50.274;18.908;2023-08-07T09:37:57;97131.89;;;14.85;99.97
61898;BME280;47850;50.274;18.908;2023-08-07T09:40:25;97128.55;;;14.80;100.00
61898;BME280;47850;50.274;18.908;2023-08-07T09:42:54;97131.77;;;14.80;100.00
61898;BME280;47850;50.274;18.908;2023-08-07T09:45:23;97135.79;;;14.84;100.00
61898;BME280;47850;50.274;18.908;2023-08-07T09:48:05;97140.10;;;14.97;100.00
61898;BME280;47850;50.274;18.908;2023-08-07T09:50:37;97140.89;;;15.18;100.00
61898;BME280;47850;50.274;18.908;2023-08-07T09:53:05;97143.25;;;15.31;100.00
61898;BME280;47850;50.274;18.908;2023-08-07T09:55:33;97142.73;;;15.42;99.19
61898;BME280;47850;50.274;18.908;2023-08-07T09:58:01;97145.06;;;15.48;98.18
61898;BME280;47850;50.274;18.908;2023-08-07T10:00:36;97147.02;;;15.55;98.61
61898;BME280;47850;50.274;18.908;2023-08-07T10:03:04;97149.08;;;15.56;98.82
61898;BME280;47850;50.274;18.908;2023-08-07T10:05:32;97150.48;;;15.56;98.91
61898;BME280;47850;50.274;18.908;2023-08-07T10:08:00;97153.20;;;15.54;98.51
61898;BME280;47850;50.274;18.908;2023-08-07T10:10:29;97157.35;;;15.37;97.92
61898;BME280;47850;50.274;18.908;2023-08-07T10:13:00;97181.79;;;15.19;97.88
61898;BME280;47850;50.274;18.908;2023-08-07T10:15:29;97186.83;;;14.83;94.63
61898;BME280;47850;50.274;18.908;2023-08-07T10:17:58;97188.90;;;14.59;95.90
61898;BME280;47850;50.274;18.908;2023-08-07T10:20:28;97190.96;;;14.40;95.92
61898;BME280;47850;50.274;18.908;2023-08-07T10:23:00;97195.02;;;14.23;96.11
61898;BME280;47850;50.274;18.908;2023-08-07T10:25:29;97192.83;;;14.08;96.43
61898;BME280;47850;50.274;18.908;2023-08-07T10:27:58;97192.76;;;13.95;96.25
61898;BME280;47850;50.274;18.908;2023-08-07T10:30:29;97196.38;;;13.82;97.04
61898;BME280;47850;50.274;18.908;2023-08-07T10:32:58;97194.20;;;13.79;97.82
61898;BME280;47850;50.274;18.908;2023-08-07T10:35:31;97192.86;;;13.82;98.05
61898;BME280;47850;50.274;18.908;2023-08-07T10:38:10;97194.04;;;13.92;98.57
61898;BME280;47850;50.274;18.908;2023-08-07T10:43:40;97207.33;;;13.99;97.84
61898;BME280;47850;50.274;18.908;2023-08-07T10:46:13;97212.05;;;13.96;97.29
61898;BME280;47850;50.274;18.908;2023-08-07T10:48:42;97212.13;;;13.96;97.86
61898;BME280;47850;50.274;18.908;2023-08-07T10:51:16;97214.49;;;13.97;97.93
61898;BME280;47850;50.274;18.908;2023-08-07T10:53:47;97209.43;;;13.94;97.45
61898;BME280;47850;50.274;18.908;2023-08-07T10:56:32;97213.02;;;13.89;97.21
61898;BME280;47850;50.274;18.908;2023-08-07T10:59:12;97214.11;;;13.89;97.82
61898;BME280;47850;50.274;18.908;2023-08-07T11:01:41;97212.84;;;13.88;97.94
61898;BME280;47850;50.274;18.908;2023-08-07T11:04:11;97212.66;;;13.91;98.32
61898;BME280;47850;50.274;18.908;2023-08-07T11:06:41;97212.18;;;13.95;98.04
61898;BME280;47850;50.274;18.908;2023-08-07T11:09:10;97209.48;;;13.97;97.94
61898;BME280;47850;50.274;18.908;2023-08-07T11:11:48;97206.59;;;14.02;98.21
61898;BME280;47850;50.274;18.908;2023-08-07T11:14:17;97203.63;;;14.08;97.83
61898;BME280;47850;50.274;18.908;2023-08-07T11:16:47;97204.35;;;14.14;97.79
61898;BME280;47850;50.274;18.908;2023-08-07T11:19:16;97203.09;;;14.23;97.60
61898;BME280;47850;50.274;18.908;2023-08-07T11:21:45;97206.80;;;14.34;97.73
61898;BME280;47850;50.274;18.908;2023-08-07T11:24:13;97212.14;;;14.40;96.73
61898;BME280;47850;50.274;18.908;2023-08-07T11:26:44;97209.70;;;14.45;96.90
61898;BME280;47850;50.274;18.908;2023-08-07T11:29:17;97214.30;;;14.59;97.41
61898;BME280;47850;50.274;18.908;2023-08-07T11:31:45;97217.01;;;14.70;97.00
61898;BME280;47850;50.274;18.908;2023-08-07T11:34:17;97217.20;;;14.79;96.33
61898;BME280;47850;50.274;18.908;2023-08-07T11:36:45;97222.04;;;14.83;95.57
61898;BME280;47850;50.274;18.908;2023-08-07T11:39:14;97222.62;;;14.91;95.86
61898;BME280;47850;50.274;18.908;2023-08-07T11:41:44;97227.02;;;15.03;95.49
61898;BME280;47850;50.274;18.908;2023-08-07T11:44:12;97227.19;;;15.10;94.23
61898;BME280;47850;50.274;18.908;2023-08-07T11:46:41;97227.13;;;15.11;93.90
61898;BME280;47850;50.274;18.908;2023-08-07T11:49:08;97227.65;;;15.15;93.94
61898;BME280;47850;50.274;18.908;2023-08-07T11:51:37;97231.02;;;15.21;93.87
61898;BME280;47850;50.274;18.908;2023-08-07T11:54:06;97235.95;;;15.34;94.14
61898;BME280;47850;50.274;18.908;2023-08-07T11:56:33;97240.05;;;15.42;93.67
61898;BME280;47850;50.274;18.908;2023-08-07T11:59:02;97241.59;;;15.46;93.39
61898;BME280;47850;50.274;18.908;2023-08-07T12:01:37;97239.69;;;15.52;92.93
61898;BME280;47850;50.274;18.908;2023-08-07T12:06:34;97250.71;;;15.53;92.45
61898;BME280;47850;50.274;18.908;2023-08-07T12:09:03;97249.45;;;15.54;91.94
61898;BME280;47850;50.274;18.908;2023-08-07T12:11:31;97253.50;;;15.57;91.70
61898;BME280;47850;50.274;18.908;2023-08-07T12:14:00;97254.23;;;15.59;91.35
61898;BME280;47850;50.274;18.908;2023-08-07T12:16:32;97256.22;;;15.62;91.07
61898;BME280;47850;50.274;18.908;2023-08-07T12:19:00;97258.31;;;15.67;91.68
61898;BME280;47850;50.274;18.908;2023-08-07T12:21:29;97255.95;;;15.86;92.45
61898;BME280;47850;50.274;18.908;2023-08-07T12:23:59;97265.08;;;16.10;92.21
61898;BME280;47850;50.274;18.908;2023-08-07T12:26:27;97268.57;;;16.23;90.07
61898;BME280;47850;50.274;18.908;2023-08-07T12:28:55;97274.58;;;16.19;89.66
61898;BME280;47850;50.274;18.908;2023-08-07T12:31:23;97278.14;;;16.20;90.52
61898;BME280;47850;50.274;18.908;2023-08-07T12:33:51;97279.38;;;16.27;90.75
61898;BME280;47850;50.274;18.908;2023-08-07T12:36:19;97285.65;;;16.26;90.56
61898;BME280;47850;50.274;18.908;2023-08-07T12:38:47;97286.23;;;16.13;90.32
61898;BME280;47850;50.274;18.908;2023-08-07T12:41:15;97294.69;;;15.88;90.21
61898;BME280;47850;50.274;18.908;2023-08-07T12:43:43;97293.45;;;15.70;91.16
61898;BME280;47850;50.274;18.908;2023-08-07T12:46:11;97295.44;;;15.64;91.87
61898;BME280;47850;50.274;18.908;2023-08-07T12:48:39;97294.88;;;15.65;92.55
61898;BME280;47850;50.274;18.908;2023-08-07T12:51:07;97299.39;;;15.62;92.25
61898;BME280;47850;50.274;18.908;2023-08-07T12:53:35;97300.91;;;15.57;92.23
61898;BME280;47850;50.274;18.908;2023-08-07T12:56:03;97298.04;;;15.60;92.34
61898;BME280;47850;50.274;18.908;2023-08-07T12:58:32;97299.19;;;15.64;92.06
61898;BME280;47850;50.274;18.908;2023-08-07T13:01:00;97297.67;;;15.74;92.43
61898;BME280;47850;50.274;18.908;2023-08-07T13:03:28;97299.98;;;15.90;92.32
61898;BME280;47850;50.274;18.908;2023-08-07T13:05:55;97302.83;;;15.99;92.46
61898;BME280;47850;50.274;18.908;2023-08-07T13:08:23;97302.05;;;16.00;92.48